Huvudsida
METAR-TAF:

METAR-TAF

Flygplatser :

Oljeplattform

Norne Fpso, Norge

latitud: 66-01-48N, longitud: 008-04-48E, höjd: 10 m

Aktuellt väderrapport

Denna rapport gjordes för 30 minuter sedan, klockan 09:20 UTC
Vind 13 kt från syd
Temperatur 8°C
Fuktighet 93%
Tryck 1033 hPa
Sikt 10 km eller mer
Få moln på en höjd av 1000 ft

METAR: ENNE 270920Z 19013KT 9999 FEW010 08/07 Q1033 W///S4

Tid: 11:50 (09:50 UTC)


TAF: saknas

Aktuella väderrapporter och prognoser från 4000 flygplatser (METAR- och TAF-rapporter).

De tillgängliga stationerna syns som gula och röda prickar på kartan.

För musen över prickarna för att se namnen på stationerna.

Klicka sedan för att få väderrapporter och prognoser.

För att ändra kartan: Klicka på de gröna knapparna med ett svart kors på för att zooma in; den gröna knappen med ett streck på för att zooma ut; eller på de gröna pilarna för angränsande kartor.


METAR-TAF: